sensor_id;sensor_type;location;lat;lon;timestamp;pressure;altitude;pressure_sealevel;temperature;humidity
64141;BME280;50436;50.618;7.932;2022-12-16T00:01:08;95641.22;;;-7.59;100.00
64141;BME280;50436;50.618;7.932;2022-12-16T00:03:56;95636.50;;;-7.55;100.00
64141;BME280;50436;50.618;7.932;2022-12-16T00:06:42;95636.47;;;-7.63;100.00
64141;BME280;50436;50.618;7.932;2022-12-16T00:09:28;95622.63;;;-7.72;100.00
64141;BME280;50436;50.618;7.932;2022-12-16T00:12:14;95629.47;;;-7.71;100.00
64141;BME280;50436;50.618;7.932;2022-12-16T00:15:00;95637.78;;;-7.67;100.00
64141;BME280;50436;50.618;7.932;2022-12-16T00:17:46;95629.81;;;-7.66;100.00
64141;BME280;50436;50.618;7.932;2022-12-16T00:20:32;95617.47;;;-7.64;100.00
64141;BME280;50436;50.618;7.932;2022-12-16T00:23:19;95622.53;;;-7.62;100.00
64141;BME280;50436;50.618;7.932;2022-12-16T00:26:05;95623.03;;;-7.59;100.00
64141;BME280;50436;50.618;7.932;2022-12-16T00:28:51;95613.59;;;-7.60;100.00
64141;BME280;50436;50.618;7.932;2022-12-16T00:31:36;95620.78;;;-7.53;100.00
64141;BME280;50436;50.618;7.932;2022-12-16T00:34:22;95613.13;;;-7.55;100.00
64141;BME280;50436;50.618;7.932;2022-12-16T00:37:10;95619.47;;;-7.49;100.00
64141;BME280;50436;50.618;7.932;2022-12-16T00:39:56;95626.16;;;-7.47;100.00
64141;BME280;50436;50.618;7.932;2022-12-16T00:42:42;95625.50;;;-7.49;100.00
64141;BME280;50436;50.618;7.932;2022-12-16T00:45:28;95631.81;;;-7.51;100.00
64141;BME280;50436;50.618;7.932;2022-12-16T00:48:15;95625.28;;;-7.55;100.00
64141;BME280;50436;50.618;7.932;2022-12-16T00:51:01;95624.16;;;-7.61;100.00
64141;BME280;50436;50.618;7.932;2022-12-16T00:53:47;95629.81;;;-7.66;100.00
64141;BME280;50436;50.618;7.932;2022-12-16T00:56:33;95615.44;;;-7.86;100.00
64141;BME280;50436;50.618;7.932;2022-12-16T00:59:19;95621.78;;;-7.80;100.00
64141;BME280;50436;50.618;7.932;2022-12-16T01:02:07;95628.47;;;-7.78;100.00
64141;BME280;50436;50.618;7.932;2022-12-16T01:04:55;95632.22;;;-7.72;100.00
64141;BME280;50436;50.618;7.932;2022-12-16T01:07:41;95632.69;;;-7.77;100.00
64141;BME280;50436;50.618;7.932;2022-12-16T01:10:27;95636.72;;;-7.82;100.00
64141;BME280;50436;50.618;7.932;2022-12-16T01:13:13;95638.97;;;-7.88;100.00
64141;BME280;50436;50.618;7.932;2022-12-16T01:16:00;95644.69;;;-7.84;100.00
64141;BME280;50436;50.618;7.932;2022-12-16T01:18:48;95638.16;;;-7.88;100.00
64141;BME280;50436;50.618;7.932;2022-12-16T01:21:34;95642.69;;;-7.90;100.00
64141;BME280;50436;50.618;7.932;2022-12-16T01:24:20;95637.47;;;-7.98;100.00
64141;BME280;50436;50.618;7.932;2022-12-16T01:27:06;95657.63;;;-7.92;100.00
64141;BME280;50436;50.618;7.932;2022-12-16T01:29:51;95651.91;;;-7.96;100.00
64141;BME280;50436;50.618;7.932;2022-12-16T01:32:37;95656.78;;;-8.01;100.00
64141;BME280;50436;50.618;7.932;2022-12-16T01:35:23;95652.47;;;-8.10;100.00
64141;BME280;50436;50.618;7.932;2022-12-16T01:38:09;95660.69;;;-8.23;100.00
64141;BME280;50436;50.618;7.932;2022-12-16T01:40:55;95655.31;;;-8.21;100.00
64141;BME280;50436;50.618;7.932;2022-12-16T01:43:42;95670.03;;;-8.30;100.00
64141;BME280;50436;50.618;7.932;2022-12-16T01:46:29;95654.47;;;-8.30;100.00
64141;BME280;50436;50.618;7.932;2022-12-16T01:49:30;95671.50;;;-8.27;100.00
64141;BME280;50436;50.618;7.932;2022-12-16T01:52:24;95672.31;;;-8.27;100.00
64141;BME280;50436;50.618;7.932;2022-12-16T01:55:16;95667.41;;;-8.38;100.00
64141;BME280;50436;50.618;7.932;2022-12-16T01:58:12;95676.47;;;-8.34;100.00
64141;BME280;50436;50.618;7.932;2022-12-16T02:00:59;95683.44;;;-8.43;100.00
64141;BME280;50436;50.618;7.932;2022-12-16T02:03:47;95670.44;;;-8.43;100.00
64141;BME280;50436;50.618;7.932;2022-12-16T02:06:33;95672.91;;;-8.33;100.00
64141;BME280;50436;50.618;7.932;2022-12-16T02:09:20;95683.50;;;-8.08;100.00
64141;BME280;50436;50.618;7.932;2022-12-16T02:12:18;95681.56;;;-8.06;100.00
64141;BME280;50436;50.618;7.932;2022-12-16T02:33:25;95683.53;;;-8.52;100.00
64141;BME280;50436;50.618;7.932;2022-12-16T02:39:30;95679.22;;;-8.61;100.00
64141;BME280;50436;50.618;7.932;2022-12-16T02:42:29;95682.63;;;-8.61;100.00
64141;BME280;50436;50.618;7.932;2022-12-16T02:45:21;95690.84;;;-8.65;100.00
64141;BME280;50436;50.618;7.932;2022-12-16T02:48:08;95695.22;;;-8.66;100.00
64141;BME280;50436;50.618;7.932;2022-12-16T02:50:54;95699.59;;;-8.66;100.00
64141;BME280;50436;50.618;7.932;2022-12-16T02:53:41;95694.34;;;-8.75;100.00
64141;BME280;50436;50.618;7.932;2022-12-16T02:59:42;95703.69;;;-8.82;100.00
64141;BME280;50436;50.618;7.932;2022-12-16T03:08:27;95699.84;;;-8.78;100.00
64141;BME280;50436;50.618;7.932;2022-12-16T03:11:15;95693.84;;;-8.78;100.00
64141;BME280;50436;50.618;7.932;2022-12-16T03:14:02;95702.66;;;-8.71;100.00
64141;BME280;50436;50.618;7.932;2022-12-16T03:16:50;95693.16;;;-8.80;100.00
64141;BME280;50436;50.618;7.932;2022-12-16T03:19:37;95695.09;;;-8.82;100.00
64141;BME280;50436;50.618;7.932;2022-12-16T03:22:33;95701.09;;;-8.82;100.00
64141;BME280;50436;50.618;7.932;2022-12-16T03:25:22;95693.16;;;-8.80;100.00
64141;BME280;50436;50.618;7.932;2022-12-16T03:28:35;95692.06;;;-8.78;100.00
64141;BME280;50436;50.618;7.932;2022-12-16T03:31:50;95687.53;;;-8.76;100.00
64141;BME280;50436;50.618;7.932;2022-12-16T03:34:50;95698.06;;;-8.77;100.00
64141;BME280;50436;50.618;7.932;2022-12-16T03:37:37;95691.44;;;-8.72;100.00
64141;BME280;50436;50.618;7.932;2022-12-16T03:40:25;95690.94;;;-8.75;100.00
64141;BME280;50436;50.618;7.932;2022-12-16T03:43:13;95689.16;;;-8.75;100.00
64141;BME280;50436;50.618;7.932;2022-12-16T03:46:03;95694.34;;;-8.75;100.00
64141;BME280;50436;50.618;7.932;2022-12-16T03:48:51;95682.66;;;-8.79;100.00
64141;BME280;50436;50.618;7.932;2022-12-16T03:51:37;95692.09;;;-8.87;100.00
64141;BME280;50436;50.618;7.932;2022-12-16T03:54:23;95688.13;;;-8.82;100.00
64141;BME280;50436;50.618;7.932;2022-12-16T03:57:10;95689.75;;;-8.81;100.00
64141;BME280;50436;50.618;7.932;2022-12-16T03:59:57;95679.59;;;-8.92;100.00
64141;BME280;50436;50.618;7.932;2022-12-16T04:02:43;95701.53;;;-8.86;100.00
64141;BME280;50436;50.618;7.932;2022-12-16T04:05:29;95695.81;;;-8.90;100.00
64141;BME280;50436;50.618;7.932;2022-12-16T04:08:15;95705.75;;;-8.85;100.00
64141;BME280;50436;50.618;7.932;2022-12-16T04:11:00;95697.91;;;-8.93;100.00
64141;BME280;50436;50.618;7.932;2022-12-16T04:14:07;95700.53;;;-9.03;100.00
64141;BME280;50436;50.618;7.932;2022-12-16T04:17:11;95709.59;;;-9.07;100.00
64141;BME280;50436;50.618;7.932;2022-12-16T04:20:17;95715.16;;;-9.02;100.00
64141;BME280;50436;50.618;7.932;2022-12-16T04:23:24;95704.25;;;-9.06;100.00
64141;BME280;50436;50.618;7.932;2022-12-16T04:26:29;95713.13;;;-9.08;100.00
64141;BME280;50436;50.618;7.932;2022-12-16T04:29:15;95715.19;;;-9.12;100.00
64141;BME280;50436;50.618;7.932;2022-12-16T04:32:01;95720.53;;;-9.13;100.00
64141;BME280;50436;50.618;7.932;2022-12-16T04:34:47;95700.34;;;-9.10;100.00
64141;BME280;50436;50.618;7.932;2022-12-16T04:37:32;95713.00;;;-9.07;100.00
64141;BME280;50436;50.618;7.932;2022-12-16T04:40:37;95719.41;;;-9.11;100.00
64141;BME280;50436;50.618;7.932;2022-12-16T04:43:41;95726.09;;;-9.08;100.00
64141;BME280;50436;50.618;7.932;2022-12-16T04:46:46;95726.19;;;-9.00;100.00
64141;BME280;50436;50.618;7.932;2022-12-16T04:49:50;95721.59;;;-9.06;100.00
64141;BME280;50436;50.618;7.932;2022-12-16T04:52:55;95717.94;;;-9.13;100.00
64141;BME280;50436;50.618;7.932;2022-12-16T04:55:59;95706.66;;;-9.22;100.00
64141;BME280;50436;50.618;7.932;2022-12-16T04:59:04;95717.44;;;-9.27;100.00
64141;BME280;50436;50.618;7.932;2022-12-16T05:02:08;95721.16;;;-9.29;100.00
64141;BME280;50436;50.618;7.932;2022-12-16T05:05:12;95727.47;;;-9.32;100.00
64141;BME280;50436;50.618;7.932;2022-12-16T05:08:17;95730.56;;;-9.28;100.00
64141;BME280;50436;50.618;7.932;2022-12-16T05:11:21;95738.34;;;-9.28;100.00
64141;BME280;50436;50.618;7.932;2022-12-16T05:14:26;95750.13;;;-9.34;100.00
64141;BME280;50436;50.618;7.932;2022-12-16T05:17:31;95752.31;;;-9.39;100.00
64141;BME280;50436;50.618;7.932;2022-12-16T05:20:35;95748.22;;;-9.41;100.00
64141;BME280;50436;50.618;7.932;2022-12-16T05:23:39;95763.50;;;-9.38;100.00
64141;BME280;50436;50.618;7.932;2022-12-16T05:26:44;95770.28;;;-9.37;100.00
64141;BME280;50436;50.618;7.932;2022-12-16T05:29:48;95778.22;;;-9.39;100.00
64141;BME280;50436;50.618;7.932;2022-12-16T05:32:53;95786.50;;;-9.35;100.00
64141;BME280;50436;50.618;7.932;2022-12-16T05:35:57;95786.66;;;-9.37;100.00
64141;BME280;50436;50.618;7.932;2022-12-16T05:39:02;95796.63;;;-9.32;100.00
64141;BME280;50436;50.618;7.932;2022-12-16T05:42:06;95792.28;;;-9.41;100.00
64141;BME280;50436;50.618;7.932;2022-12-16T05:45:11;95803.34;;;-9.49;100.00
64141;BME280;50436;50.618;7.932;2022-12-16T05:48:16;95809.47;;;-9.50;100.00
64141;BME280;50436;50.618;7.932;2022-12-16T05:51:20;95808.09;;;-9.44;100.00
64141;BME280;50436;50.618;7.932;2022-12-16T05:54:24;95811.34;;;-9.33;100.00
64141;BME280;50436;50.618;7.932;2022-12-16T05:57:29;95809.72;;;-9.34;100.00
64141;BME280;50436;50.618;7.932;2022-12-16T06:00:34;95815.00;;;-9.25;100.00
64141;BME280;50436;50.618;7.932;2022-12-16T06:03:38;95812.16;;;-9.32;100.00
64141;BME280;50436;50.618;7.932;2022-12-16T06:06:43;95833.16;;;-9.25;100.00
64141;BME280;50436;50.618;7.932;2022-12-16T06:09:47;95830.00;;;-9.29;100.00
64141;BME280;50436;50.618;7.932;2022-12-16T06:12:52;95836.66;;;-9.27;100.00
64141;BME280;50436;50.618;7.932;2022-12-16T06:15:56;95842.16;;;-9.30;100.00
64141;BME280;50436;50.618;7.932;2022-12-16T06:19:00;95839.16;;;-9.35;100.00
64141;BME280;50436;50.618;7.932;2022-12-16T06:22:05;95843.78;;;-9.29;100.00
64141;BME280;50436;50.618;7.932;2022-12-16T06:25:09;95842.16;;;-9.30;100.00
64141;BME280;50436;50.618;7.932;2022-12-16T06:28:21;95854.41;;;-9.22;100.00
64141;BME280;50436;50.618;7.932;2022-12-16T06:31:26;95860.09;;;-9.18;100.00
64141;BME280;50436;50.618;7.932;2022-12-16T06:34:30;95863.56;;;-9.28;100.00
64141;BME280;50436;50.618;7.932;2022-12-16T06:37:34;95871.91;;;-9.34;100.00
64141;BME280;50436;50.618;7.932;2022-12-16T06:40:39;95875.06;;;-9.40;100.00
64141;BME280;50436;50.618;7.932;2022-12-16T06:43:43;95878.31;;;-9.38;100.00
64141;BME280;50436;50.618;7.932;2022-12-16T06:46:48;95876.38;;;-9.36;100.00
64141;BME280;50436;50.618;7.932;2022-12-16T06:49:52;95885.94;;;-9.36;100.00
64141;BME280;50436;50.618;7.932;2022-12-16T06:52:56;95894.97;;;-9.40;100.00
64141;BME280;50436;50.618;7.932;2022-12-16T06:56:01;95895.66;;;-9.48;100.00
64141;BME280;50436;50.618;7.932;2022-12-16T06:59:05;95913.66;;;-9.56;100.00
64141;BME280;50436;50.618;7.932;2022-12-16T07:02:10;95920.63;;;-9.57;100.00
64141;BME280;50436;50.618;7.932;2022-12-16T07:05:15;95921.44;;;-9.56;100.00
64141;BME280;50436;50.618;7.932;2022-12-16T07:08:19;95926.75;;;-9.48;100.00
64141;BME280;50436;50.618;7.932;2022-12-16T07:11:23;95922.38;;;-9.47;100.00
64141;BME280;50436;50.618;7.932;2022-12-16T07:14:28;95937.13;;;-9.48;100.00
64141;BME280;50436;50.618;7.932;2022-12-16T07:17:32;95941.06;;;-9.44;100.00
64141;BME280;50436;50.618;7.932;2022-12-16T07:20:37;95935.88;;;-9.44;100.00
64141;BME280;50436;50.618;7.932;2022-12-16T07:23:41;95950.59;;;-9.35;100.00
64141;BME280;50436;50.618;7.932;2022-12-16T07:26:46;95957.69;;;-9.37;100.00
64141;BME280;50436;50.618;7.932;2022-12-16T07:29:50;95957.97;;;-9.40;100.00
64141;BME280;50436;50.618;7.932;2022-12-16T07:32:55;95963.53;;;-9.35;100.00
64141;BME280;50436;50.618;7.932;2022-12-16T07:35:59;95959.72;;;-9.31;100.00
64141;BME280;50436;50.618;7.932;2022-12-16T07:39:03;95972.25;;;-9.26;100.00
64141;BME280;50436;50.618;7.932;2022-12-16T07:42:07;95977.19;;;-9.23;100.00
64141;BME280;50436;50.618;7.932;2022-12-16T07:45:12;95977.59;;;-9.18;100.00
64141;BME280;50436;50.618;7.932;2022-12-16T07:48:16;95980.03;;;-9.16;100.00
64141;BME280;50436;50.618;7.932;2022-12-16T07:51:20;95980.03;;;-9.16;100.00
64141;BME280;50436;50.618;7.932;2022-12-16T07:54:25;95981.25;;;-9.11;100.00
64141;BME280;50436;50.618;7.932;2022-12-16T07:57:29;95968.88;;;-9.17;100.00
64141;BME280;50436;50.618;7.932;2022-12-16T08:00:34;95983.72;;;-9.09;100.00
64141;BME280;50436;50.618;7.932;2022-12-16T08:03:38;96005.94;;;-9.07;100.00
64141;BME280;50436;50.618;7.932;2022-12-16T08:06:43;95995.06;;;-9.10;100.00
64141;BME280;50436;50.618;7.932;2022-12-16T08:09:47;96008.53;;;-8.97;100.00
64141;BME280;50436;50.618;7.932;2022-12-16T08:13:01;96011.41;;;-9.00;100.00
64141;BME280;50436;50.618;7.932;2022-12-16T08:16:06;96008.63;;;-8.89;100.00
64141;BME280;50436;50.618;7.932;2022-12-16T08:19:11;96024.63;;;-8.84;100.00
64141;BME280;50436;50.618;7.932;2022-12-16T08:22:15;96027.03;;;-8.73;100.00
64141;BME280;50436;50.618;7.932;2022-12-16T08:25:20;96030.03;;;-8.67;100.00
64141;BME280;50436;50.618;7.932;2022-12-16T08:28:24;96035.47;;;-8.61;100.00
64141;BME280;50436;50.618;7.932;2022-12-16T08:31:29;96031.53;;;-8.55;100.00
64141;BME280;50436;50.618;7.932;2022-12-16T08:34:34;96042.28;;;-8.50;100.00
64141;BME280;50436;50.618;7.932;2022-12-16T08:37:38;96044.31;;;-8.44;100.00
64141;BME280;50436;50.618;7.932;2022-12-16T08:40:43;96035.81;;;-8.36;100.00
64141;BME280;50436;50.618;7.932;2022-12-16T08:43:48;96052.13;;;-8.26;100.00
64141;BME280;50436;50.618;7.932;2022-12-16T08:46:52;96044.19;;;-8.15;100.00
64141;BME280;50436;50.618;7.932;2022-12-16T08:49:57;96050.25;;;-7.97;100.00
64141;BME280;50436;50.618;7.932;2022-12-16T08:53:01;96053.25;;;-7.92;100.00
64141;BME280;50436;50.618;7.932;2022-12-16T08:56:06;96060.25;;;-7.74;100.00
64141;BME280;50436;50.618;7.932;2022-12-16T08:59:10;96059.78;;;-7.60;100.00
64141;BME280;50436;50.618;7.932;2022-12-16T09:02:15;96055.56;;;-7.43;100.00
64141;BME280;50436;50.618;7.932;2022-12-16T09:05:19;96056.59;;;-7.18;100.00
64141;BME280;50436;50.618;7.932;2022-12-16T09:08:23;96059.34;;;-6.84;100.00
64141;BME280;50436;50.618;7.932;2022-12-16T09:11:28;96064.09;;;-6.36;100.00
64141;BME280;50436;50.618;7.932;2022-12-16T09:14:32;96067.00;;;-5.04;100.00
64141;BME280;50436;50.618;7.932;2022-12-16T09:17:37;96054.84;;;-2.98;100.00
64141;BME280;50436;50.618;7.932;2022-12-16T09:20:41;96063.78;;;-0.56;100.00
64141;BME280;50436;50.618;7.932;2022-12-16T09:23:48;96036.59;;;1.03;100.00
64141;BME280;50436;50.618;7.932;2022-12-16T09:26:52;96051.56;;;2.55;95.68
64141;BME280;50436;50.618;7.932;2022-12-16T09:29:57;96045.81;;;4.04;79.47
64141;BME280;50436;50.618;7.932;2022-12-16T09:33:02;96037.13;;;5.25;61.17
64141;BME280;50436;50.618;7.932;2022-12-16T09:36:06;96054.56;;;5.93;54.38
64141;BME280;50436;50.618;7.932;2022-12-16T09:39:11;96040.94;;;7.00;50.19
64141;BME280;50436;50.618;7.932;2022-12-16T09:42:31;96047.53;;;7.66;45.29
64141;BME280;50436;50.618;7.932;2022-12-16T09:46:08;96052.56;;;7.96;44.03
64141;BME280;50436;50.618;7.932;2022-12-16T09:49:29;96047.00;;;8.48;40.73
64141;BME280;50436;50.618;7.932;2022-12-16T09:52:43;96056.13;;;9.13;43.33
64141;BME280;50436;50.618;7.932;2022-12-16T09:55:49;96070.28;;;9.62;43.17
64141;BME280;50436;50.618;7.932;2022-12-16T09:59:00;96062.69;;;10.77;40.05
64141;BME280;50436;50.618;7.932;2022-12-16T10:02:10;96066.34;;;11.86;37.57
64141;BME280;50436;50.618;7.932;2022-12-16T10:05:21;96056.72;;;12.57;37.29
64141;BME280;50436;50.618;7.932;2022-12-16T10:08:37;96061.94;;;13.18;38.00
64141;BME280;50436;50.618;7.932;2022-12-16T10:15:25;96060.09;;;14.51;34.75
64141;BME280;50436;50.618;7.932;2022-12-16T10:22:24;96049.97;;;15.44;30.55
64141;BME280;50436;50.618;7.932;2022-12-16T10:25:39;96054.53;;;15.67;32.19
64141;BME280;50436;50.618;7.932;2022-12-16T10:28:50;96064.59;;;16.18;34.19
64141;BME280;50436;50.618;7.932;2022-12-16T10:31:57;96063.47;;;17.03;32.28
64141;BME280;50436;50.618;7.932;2022-12-16T10:35:04;96059.47;;;17.42;31.42
64141;BME280;50436;50.618;7.932;2022-12-16T10:38:29;96056.25;;;18.17;29.61
64141;BME280;50436;50.618;7.932;2022-12-16T10:41:42;96055.53;;;18.25;29.13
64141;BME280;50436;50.618;7.932;2022-12-16T10:44:57;96051.81;;;18.88;27.21
64141;BME280;50436;50.618;7.932;2022-12-16T10:48:04;96051.34;;;19.26;30.03
64141;BME280;50436;50.618;7.932;2022-12-16T10:51:27;96044.25;;;19.56;28.83
64141;BME280;50436;50.618;7.932;2022-12-16T10:54:41;96056.66;;;20.23;25.18
64141;BME280;50436;50.618;7.932;2022-12-16T10:58:01;96047.41;;;20.33;25.62
64141;BME280;50436;50.618;7.932;2022-12-16T11:01:24;96051.38;;;20.78;23.84
64141;BME280;50436;50.618;7.932;2022-12-16T11:04:36;96055.47;;;20.93;24.73
64141;BME280;50436;50.618;7.932;2022-12-16T11:10:46;96064.53;;;21.61;26.25
64141;BME280;50436;50.618;7.932;2022-12-16T11:14:11;96060.75;;;21.45;22.73
64141;BME280;50436;50.618;7.932;2022-12-16T11:17:19;96054.03;;;21.81;25.46
64141;BME280;50436;50.618;7.932;2022-12-16T11:20:25;96059.41;;;21.89;25.73
64141;BME280;50436;50.618;7.932;2022-12-16T11:23:29;96064.47;;;21.70;24.23
64141;BME280;50436;50.618;7.932;2022-12-16T11:26:34;96062.94;;;21.60;24.27
64141;BME280;50436;50.618;7.932;2022-12-16T11:33:41;96074.75;;;21.26;21.17
64141;BME280;50436;50.618;7.932;2022-12-16T11:36:47;96078.03;;;21.02;24.11
64141;BME280;50436;50.618;7.932;2022-12-16T11:39:53;96078.81;;;21.03;21.28
64141;BME280;50436;50.618;7.932;2022-12-16T11:43:00;96072.41;;;22.34;23.90
64141;BME280;50436;50.618;7.932;2022-12-16T11:46:23;96066.97;;;23.58;21.49
64141;BME280;50436;50.618;7.932;2022-12-16T11:49:31;96071.16;;;24.16;21.19
64141;BME280;50436;50.618;7.932;2022-12-16T11:52:36;96075.34;;;24.66;22.42
64141;BME280;50436;50.618;7.932;2022-12-16T11:55:43;96068.78;;;24.55;20.98
64141;BME280;50436;50.618;7.932;2022-12-16T11:58:51;96072.91;;;23.84;20.13
64141;BME280;50436;50.618;7.932;2022-12-16T12:02:00;96078.03;;;23.98;20.56
64141;BME280;50436;50.618;7.932;2022-12-16T12:05:11;96092.59;;;23.66;20.88
64141;BME280;50436;50.618;7.932;2022-12-16T12:08:41;96092.78;;;22.70;22.75
64141;BME280;50436;50.618;7.932;2022-12-16T12:15:37;96098.09;;;22.87;20.10
64141;BME280;50436;50.618;7.932;2022-12-16T12:19:02;96097.09;;;22.71;20.37
64141;BME280;50436;50.618;7.932;2022-12-16T12:22:37;96090.22;;;23.19;19.84
64141;BME280;50436;50.618;7.932;2022-12-16T12:26:10;96094.53;;;24.54;19.59
64141;BME280;50436;50.618;7.932;2022-12-16T12:29:17;96098.28;;;23.73;20.87
64141;BME280;50436;50.618;7.932;2022-12-16T12:45:40;96137.25;;;11.01;33.41
64141;BME280;50436;50.618;7.932;2022-12-16T12:52:32;96145.34;;;8.45;39.09
64141;BME280;50436;50.618;7.932;2022-12-16T12:55:46;96148.34;;;8.03;39.98
64141;BME280;50436;50.618;7.932;2022-12-16T12:58:58;96148.53;;;7.85;41.59
64141;BME280;50436;50.618;7.932;2022-12-16T13:02:11;96152.47;;;6.78;44.90
64141;BME280;50436;50.618;7.932;2022-12-16T13:05:16;96150.72;;;6.84;45.82
64141;BME280;50436;50.618;7.932;2022-12-16T13:15:33;96159.38;;;5.91;54.90
64141;BME280;50436;50.618;7.932;2022-12-16T13:18:38;96148.44;;;5.69;55.99
64141;BME280;50436;50.618;7.932;2022-12-16T13:21:43;96157.59;;;5.54;56.13
64141;BME280;50436;50.618;7.932;2022-12-16T13:24:49;96164.75;;;5.36;56.91
64141;BME280;50436;50.618;7.932;2022-12-16T13:27:54;96162.78;;;5.13;58.44
64141;BME280;50436;50.618;7.932;2022-12-16T13:31:03;96171.84;;;5.05;62.50
64141;BME280;50436;50.618;7.932;2022-12-16T13:37:24;96183.28;;;4.37;72.49
64141;BME280;50436;50.618;7.932;2022-12-16T13:40:52;96188.34;;;4.14;79.53
64141;BME280;50436;50.618;7.932;2022-12-16T13:43:58;96193.47;;;4.09;75.40
64141;BME280;50436;50.618;7.932;2022-12-16T13:47:32;96192.91;;;4.00;83.11
64141;BME280;50436;50.618;7.932;2022-12-16T13:50:43;96197.91;;;3.83;78.07
64141;BME280;50436;50.618;7.932;2022-12-16T13:53:50;96199.72;;;3.38;80.92
64141;BME280;50436;50.618;7.932;2022-12-16T13:56:59;96198.91;;;3.44;83.38
64141;BME280;50436;50.618;7.932;2022-12-16T14:00:19;96200.97;;;3.35;84.92
64141;BME280;50436;50.618;7.932;2022-12-16T14:03:44;96206.13;;;3.11;88.35
64141;BME280;50436;50.618;7.932;2022-12-16T14:06:50;96210.63;;;2.97;88.23
64141;BME280;50436;50.618;7.932;2022-12-16T14:09:54;96223.44;;;2.87;89.34
64141;BME280;50436;50.618;7.932;2022-12-16T14:13:06;96225.50;;;2.78;91.35
64141;BME280;50436;50.618;7.932;2022-12-16T14:19:33;96235.03;;;2.33;93.12
64141;BME280;50436;50.618;7.932;2022-12-16T14:23:11;96241.34;;;2.12;95.80
64141;BME280;50436;50.618;7.932;2022-12-16T14:26:22;96235.22;;;2.05;95.34
64141;BME280;50436;50.618;7.932;2022-12-16T14:29:29;96244.09;;;1.29;100.00
64141;BME280;50436;50.618;7.932;2022-12-16T14:32:34;96256.38;;;1.16;100.00
64141;BME280;50436;50.618;7.932;2022-12-16T14:35:47;96254.25;;;0.42;100.00
64141;BME280;50436;50.618;7.932;2022-12-16T14:38:52;96264.31;;;0.88;100.00
64141;BME280;50436;50.618;7.932;2022-12-16T14:41:57;96268.44;;;0.97;100.00
64141;BME280;50436;50.618;7.932;2022-12-16T14:45:03;96267.28;;;1.06;100.00
64141;BME280;50436;50.618;7.932;2022-12-16T14:51:29;96280.13;;;0.88;100.00
64141;BME280;50436;50.618;7.932;2022-12-16T14:54:37;96280.78;;;0.68;100.00
64141;BME280;50436;50.618;7.932;2022-12-16T14:58:04;96288.28;;;0.22;100.00
64141;BME280;50436;50.618;7.932;2022-12-16T15:01:20;96278.13;;;-0.03;100.00
64141;BME280;50436;50.618;7.932;2022-12-16T15:04:25;96288.34;;;-0.29;100.00
64141;BME280;50436;50.618;7.932;2022-12-16T15:07:33;96297.28;;;-0.23;100.00
64141;BME280;50436;50.618;7.932;2022-12-16T15:10:40;96294.09;;;-0.55;100.00
64141;BME280;50436;50.618;7.932;2022-12-16T15:13:53;96301.25;;;-0.64;100.00
64141;BME280;50436;50.618;7.932;2022-12-16T15:16:59;96317.91;;;-0.86;100.00
64141;BME280;50436;50.618;7.932;2022-12-16T15:20:09;96326.00;;;-1.25;100.00
64141;BME280;50436;50.618;7.932;2022-12-16T15:23:22;96322.88;;;-1.21;100.00
64141;BME280;50436;50.618;7.932;2022-12-16T15:26:30;96322.75;;;-1.27;100.00
64141;BME280;50436;50.618;7.932;2022-12-16T15:29:36;96328.34;;;-1.45;100.00
64141;BME280;50436;50.618;7.932;2022-12-16T15:32:42;96324.41;;;-1.72;100.00
64141;BME280;50436;50.618;7.932;2022-12-16T15:35:46;96327.22;;;-1.74;100.00
64141;BME280;50436;50.618;7.932;2022-12-16T15:38:51;96330.41;;;-1.78;100.00
64141;BME280;50436;50.618;7.932;2022-12-16T15:41:55;96342.69;;;-1.79;100.00
64141;BME280;50436;50.618;7.932;2022-12-16T15:44:59;96335.50;;;-2.08;100.00
64141;BME280;50436;50.618;7.932;2022-12-16T15:48:27;96354.06;;;-2.17;100.00
64141;BME280;50436;50.618;7.932;2022-12-16T15:51:42;96365.06;;;-2.22;100.00
64141;BME280;50436;50.618;7.932;2022-12-16T15:54:51;96366.19;;;-2.56;100.00
64141;BME280;50436;50.618;7.932;2022-12-16T15:58:09;96371.75;;;-2.67;100.00
64141;BME280;50436;50.618;7.932;2022-12-16T16:01:17;96353.50;;;-2.99;100.00
64141;BME280;50436;50.618;7.932;2022-12-16T16:04:29;96386.88;;;-2.85;100.00
64141;BME280;50436;50.618;7.932;2022-12-16T16:07:33;96391.28;;;-2.86;100.00
64141;BME280;50436;50.618;7.932;2022-12-16T16:10:41;96389.81;;;-2.88;100.00
64141;BME280;50436;50.618;7.932;2022-12-16T16:13:45;96390.13;;;-2.83;100.00
64141;BME280;50436;50.618;7.932;2022-12-16T16:16:50;96404.41;;;-3.02;100.00
64141;BME280;50436;50.618;7.932;2022-12-16T16:19:54;96399.84;;;-3.16;100.00
64141;BME280;50436;50.618;7.932;2022-12-16T16:22:58;96410.47;;;-3.10;100.00
64141;BME280;50436;50.618;7.932;2022-12-16T16:26:03;96426.81;;;-3.16;100.00
64141;BME280;50436;50.618;7.932;2022-12-16T16:29:09;96414.72;;;-3.41;100.00
64141;BME280;50436;50.618;7.932;2022-12-16T16:32:15;96433.81;;;-3.65;100.00
64141;BME280;50436;50.618;7.932;2022-12-16T16:35:19;96421.69;;;-3.66;100.00
64141;BME280;50436;50.618;7.932;2022-12-16T16:38:24;96424.16;;;-3.73;100.00
64141;BME280;50436;50.618;7.932;2022-12-16T16:41:28;96440.66;;;-3.72;100.00
64141;BME280;50436;50.618;7.932;2022-12-16T16:44:36;96445.56;;;-3.69;100.00
64141;BME280;50436;50.618;7.932;2022-12-16T16:47:41;96446.53;;;-3.78;100.00
64141;BME280;50436;50.618;7.932;2022-12-16T16:50:45;96445.53;;;-3.85;100.00
64141;BME280;50436;50.618;7.932;2022-12-16T16:53:50;96452.59;;;-4.20;100.00
64141;BME280;50436;50.618;7.932;2022-12-16T16:56:54;96456.38;;;-4.49;100.00
64141;BME280;50436;50.618;7.932;2022-12-16T16:59:59;96473.38;;;-4.70;100.00
64141;BME280;50436;50.618;7.932;2022-12-16T17:03:03;96469.66;;;-4.60;100.00
64141;BME280;50436;50.618;7.932;2022-12-16T17:06:08;96468.03;;;-4.61;100.00
64141;BME280;50436;50.618;7.932;2022-12-16T17:09:17;96477.47;;;-4.42;100.00
64141;BME280;50436;50.618;7.932;2022-12-16T17:12:27;96476.59;;;-4.51;100.00
64141;BME280;50436;50.618;7.932;2022-12-16T17:15:35;96483.38;;;-4.66;100.00
64141;BME280;50436;50.618;7.932;2022-12-16T17:18:40;96486.75;;;-4.91;100.00
64141;BME280;50436;50.618;7.932;2022-12-16T17:21:44;96486.47;;;-5.06;100.00
64141;BME280;50436;50.618;7.932;2022-12-16T17:24:49;96495.06;;;-5.14;100.00